createdAt,value
2017-07-16T00:00:15.177Z,5.72
2017-07-16T00:02:44.489Z,6.22
2017-07-16T00:05:13.812Z,4.90
2017-07-16T00:07:43.896Z,5.65
2017-07-16T00:10:13.238Z,6.75
2017-07-16T00:12:42.552Z,5.70
2017-07-16T00:15:11.872Z,4.87
2017-07-16T00:17:41.203Z,5.22
2017-07-16T00:20:10.526Z,5.57
2017-07-16T00:22:40.596Z,5.55
2017-07-16T00:25:09.926Z,5.47
2017-07-16T00:27:39.240Z,5.68
2017-07-16T00:30:08.625Z,4.80
2017-07-16T00:32:39.161Z,6.15
2017-07-16T00:35:08.471Z,5.85
2017-07-16T00:37:37.797Z,6.12
2017-07-16T00:40:07.104Z,6.05
2017-07-16T00:42:36.435Z,6.18
2017-07-16T00:45:05.748Z,5.97
2017-07-16T00:47:35.079Z,5.70
2017-07-16T00:50:04.388Z,5.03
2017-07-16T00:52:34.481Z,5.50
2017-07-16T00:55:03.785Z,5.00
2017-07-16T00:57:33.117Z,4.95
2017-07-16T01:00:03.189Z,5.12
2017-07-16T01:02:32.508Z,5.60
2017-07-16T01:05:01.825Z,4.82
2017-07-16T01:07:31.129Z,6.00
2017-07-16T01:10:00.451Z,5.70
2017-07-16T01:12:29.766Z,6.00
2017-07-16T01:14:59.080Z,5.07
2017-07-16T01:17:28.424Z,6.62
2017-07-16T01:19:58.517Z,5.20
2017-07-16T01:22:27.824Z,5.30
2017-07-16T01:24:57.149Z,5.50
2017-07-16T01:27:27.225Z,5.80
2017-07-16T01:29:56.552Z,5.53
2017-07-16T01:32:26.645Z,4.72
2017-07-16T01:34:55.955Z,5.40
2017-07-16T01:37:25.271Z,5.87
2017-07-16T01:39:54.571Z,5.47
2017-07-16T01:42:23.894Z,5.03
2017-07-16T01:44:53.961Z,5.28
2017-07-16T01:47:23.281Z,5.57
2017-07-16T01:49:52.585Z,5.50
2017-07-16T01:52:21.900Z,6.95
2017-07-16T01:54:51.213Z,6.18
2017-07-16T01:57:21.303Z,6.65
2017-07-16T01:59:50.608Z,6.18
2017-07-16T02:02:19.937Z,5.97
2017-07-16T02:04:49.241Z,5.43
2017-07-16T02:07:18.542Z,5.60
2017-07-16T02:09:48.630Z,6.40
2017-07-16T02:12:17.930Z,6.32
2017-07-16T02:14:47.249Z,6.07
2017-07-16T02:17:17.370Z,5.70
2017-07-16T02:19:47.461Z,6.62
2017-07-16T02:22:16.773Z,6.62
2017-07-16T02:24:46.102Z,6.15
2017-07-16T02:27:16.183Z,7.15
2017-07-16T02:29:45.513Z,5.35
2017-07-16T02:32:15.602Z,5.55
2017-07-16T02:34:44.905Z,5.70
2017-07-16T02:37:14.216Z,5.75
2017-07-16T02:39:43.526Z,5.82
2017-07-16T02:42:12.844Z,6.10
2017-07-16T02:44:42.153Z,5.57
2017-07-16T02:47:11.497Z,5.43
2017-07-16T02:49:40.803Z,5.43
2017-07-16T02:52:10.106Z,5.90
2017-07-16T02:54:39.429Z,5.55
2017-07-16T02:57:08.732Z,6.87
2017-07-16T02:59:38.067Z,6.10
2017-07-16T03:02:07.368Z,5.10
2017-07-16T03:04:36.692Z,5.68
2017-07-16T03:07:06.001Z,6.32
2017-07-16T03:09:35.330Z,5.82
2017-07-16T03:12:04.629Z,5.60
2017-07-16T03:14:33.985Z,6.37
2017-07-16T03:17:03.302Z,5.37
2017-07-16T03:19:32.599Z,5.12
2017-07-16T03:22:01.936Z,5.30
2017-07-16T03:24:31.242Z,5.15
2017-07-16T03:27:00.577Z,4.93
2017-07-16T03:29:29.892Z,5.68
2017-07-16T03:31:59.213Z,6.12
2017-07-16T03:34:28.513Z,5.80
2017-07-16T03:36:57.861Z,4.97
2017-07-16T03:39:27.167Z,5.35
2017-07-16T03:41:56.477Z,4.45
2017-07-16T03:44:26.769Z,4.93
2017-07-16T03:46:56.121Z,4.93
2017-07-16T03:49:25.424Z,4.57
2017-07-16T03:51:54.733Z,4.93
2017-07-16T03:54:24.057Z,5.18
2017-07-16T03:56:53.362Z,5.72
2017-07-16T03:59:22.681Z,5.95
2017-07-16T04:01:51.980Z,5.07
2017-07-16T04:04:21.304Z,4.82
2017-07-16T04:06:51.393Z,4.85
2017-07-16T04:09:20.716Z,5.40
2017-07-16T04:11:50.025Z,5.07
2017-07-16T04:14:20.121Z,5.40
2017-07-16T04:16:49.426Z,5.18
2017-07-16T04:19:18.725Z,4.32
2017-07-16T04:21:48.045Z,5.32
2017-07-16T04:24:17.378Z,4.70
2017-07-16T04:26:46.689Z,5.20
2017-07-16T04:29:15.993Z,5.05
2017-07-16T04:31:45.313Z,5.00
2017-07-16T04:34:14.621Z,4.95
2017-07-16T04:36:43.941Z,4.78
2017-07-16T04:39:13.241Z,4.78
2017-07-16T04:41:42.577Z,4.93
2017-07-16T04:44:12.653Z,4.90
2017-07-16T04:46:41.977Z,5.57
2017-07-16T04:49:11.301Z,4.53
2017-07-16T04:51:40.629Z,4.60
2017-07-16T04:54:09.933Z,5.00
2017-07-16T04:56:39.260Z,5.03
2017-07-16T04:59:08.572Z,5.18
2017-07-16T05:01:37.897Z,5.07
2017-07-16T05:04:07.993Z,5.50
2017-07-16T05:06:37.315Z,4.93
2017-07-16T05:09:07.405Z,4.57
2017-07-16T05:11:36.701Z,4.87
2017-07-16T05:14:06.037Z,5.47
2017-07-16T05:16:35.341Z,5.00
2017-07-16T05:19:05.433Z,5.25
2017-07-16T05:21:34.741Z,4.85
2017-07-16T05:24:04.073Z,5.15
2017-07-16T05:26:33.377Z,5.20
2017-07-16T05:29:02.701Z,4.25
2017-07-16T05:31:32.021Z,4.72
2017-07-16T05:34:01.332Z,4.75
2017-07-16T05:36:30.638Z,5.05
2017-07-16T05:38:59.959Z,4.22
2017-07-16T05:41:30.042Z,4.22
2017-07-16T05:43:59.377Z,4.25
2017-07-16T05:46:28.674Z,4.32
2017-07-16T05:48:57.984Z,4.87
2017-07-16T05:51:27.301Z,4.50
2017-07-16T05:53:57.368Z,4.18
2017-07-16T05:56:26.706Z,4.20
2017-07-16T05:58:56.004Z,5.45
2017-07-16T06:01:25.325Z,3.70
2017-07-16T06:03:55.401Z,4.55
2017-07-16T06:06:24.717Z,3.85
2017-07-16T06:08:54.018Z,3.62
2017-07-16T06:11:23.345Z,4.28
2017-07-16T06:13:52.651Z,4.00
2017-07-16T06:16:22.753Z,4.10
2017-07-16T06:18:52.829Z,3.92
2017-07-16T06:21:22.153Z,4.18
2017-07-16T06:23:51.533Z,4.30
2017-07-16T06:26:20.853Z,4.00
2017-07-16T06:28:50.157Z,4.30
2017-07-16T06:31:19.466Z,3.95
2017-07-16T06:33:48.794Z,4.70
2017-07-16T06:36:18.862Z,3.95
2017-07-16T06:38:48.182Z,4.50
2017-07-16T06:41:17.493Z,3.70
2017-07-16T06:43:50.541Z,4.80
2017-07-16T06:46:26.234Z,4.97
2017-07-16T06:52:00.768Z,4.25
2017-07-16T06:54:33.474Z,4.20
2017-07-16T06:57:06.475Z,4.30
2017-07-16T06:59:38.207Z,3.35
2017-07-16T07:02:12.121Z,3.62
2017-07-16T07:04:45.928Z,3.03
2017-07-16T07:07:21.150Z,3.10
2017-07-16T07:09:56.162Z,3.62
2017-07-16T07:12:34.640Z,3.30
2017-07-16T07:15:10.349Z,3.42
2017-07-16T07:17:46.913Z,3.20
2017-07-16T07:20:19.200Z,3.60
2017-07-16T07:22:52.333Z,3.28
2017-07-16T07:25:29.356Z,3.87
2017-07-16T07:28:00.570Z,3.42
2017-07-16T07:30:29.901Z,2.70
2017-07-16T07:32:59.209Z,2.72
2017-07-16T07:35:28.547Z,2.83
2017-07-16T07:37:58.091Z,2.75
2017-07-16T07:40:27.409Z,3.00
2017-07-16T07:42:56.745Z,2.70
2017-07-16T07:45:26.069Z,3.08
2017-07-16T07:47:56.153Z,2.58
2017-07-16T07:50:25.458Z,3.08
2017-07-16T07:52:54.777Z,3.20
2017-07-16T07:55:24.082Z,3.05
2017-07-16T07:57:53.415Z,2.95
2017-07-16T08:00:22.727Z,2.30
2017-07-16T08:02:52.049Z,2.40
2017-07-16T08:05:21.354Z,2.33
2017-07-16T08:07:50.673Z,2.62
2017-07-16T08:10:19.985Z,3.05
2017-07-16T08:12:49.307Z,2.53
2017-07-16T08:15:19.368Z,2.58
2017-07-16T08:17:48.727Z,2.60
2017-07-16T08:20:18.797Z,2.60
2017-07-16T08:22:48.129Z,2.30
2017-07-16T08:25:17.443Z,2.40
2017-07-16T08:27:47.534Z,2.30
2017-07-16T08:30:17.105Z,2.20
2017-07-16T08:32:57.943Z,3.20
2017-07-16T08:35:33.949Z,2.58
2017-07-16T08:38:11.065Z,2.22
2017-07-16T08:40:48.420Z,2.30
2017-07-16T08:43:21.434Z,2.30
2017-07-16T08:45:54.861Z,2.40
2017-07-16T08:48:35.238Z,2.40
2017-07-16T08:51:13.253Z,2.90
2017-07-16T08:53:50.362Z,2.35
2017-07-16T08:56:21.909Z,2.65
2017-07-16T08:58:59.591Z,2.92
2017-07-16T09:01:42.842Z,2.95
2017-07-16T09:04:19.461Z,2.30
2017-07-16T09:06:57.027Z,2.70
2017-07-16T09:09:26.585Z,2.10
2017-07-16T09:11:55.917Z,2.28
2017-07-16T09:14:25.249Z,1.70
2017-07-16T09:16:55.338Z,2.08
2017-07-16T09:19:24.651Z,2.10
2017-07-16T09:21:53.973Z,1.80
2017-07-16T09:24:24.049Z,1.70
2017-07-16T09:26:53.401Z,2.00
2017-07-16T09:29:22.719Z,1.95
2017-07-16T09:31:52.054Z,1.83
2017-07-16T09:34:21.371Z,1.60
2017-07-16T09:36:50.712Z,1.80
2017-07-16T09:39:20.026Z,2.00
2017-07-16T09:41:49.334Z,1.92
2017-07-16T09:44:18.661Z,1.80
2017-07-16T09:46:47.986Z,1.65
2017-07-16T09:49:18.089Z,1.70
2017-07-16T09:51:47.412Z,1.60
2017-07-16T09:54:17.526Z,1.90
2017-07-16T09:56:46.846Z,1.90
2017-07-16T09:59:16.946Z,1.77
2017-07-16T10:01:46.269Z,1.70
2017-07-16T10:04:36.976Z,1.40
2017-07-16T10:07:06.307Z,2.20
2017-07-16T10:09:35.643Z,1.75
2017-07-16T10:12:04.978Z,1.80
2017-07-16T10:14:34.342Z,1.58
2017-07-16T10:17:03.649Z,1.60
2017-07-16T10:19:32.995Z,1.52
2017-07-16T10:22:02.303Z,1.60
2017-07-16T10:24:31.629Z,2.03
2017-07-16T10:27:00.949Z,1.80
2017-07-16T10:29:30.295Z,1.87
2017-07-16T10:31:59.606Z,2.00
2017-07-16T10:34:28.918Z,1.50
2017-07-16T10:36:58.251Z,1.80
2017-07-16T10:39:27.566Z,2.22
2017-07-16T10:41:56.896Z,2.80
2017-07-16T10:44:26.206Z,1.80
2017-07-16T10:46:55.537Z,1.80
2017-07-16T10:49:24.857Z,2.20
2017-07-16T10:51:54.190Z,1.87
2017-07-16T10:54:24.273Z,1.85
2017-07-16T10:56:53.608Z,1.85
2017-07-16T10:59:23.691Z,4.70
2017-07-16T11:01:53.035Z,3.47
2017-07-16T11:04:25.063Z,2.40
2017-07-16T11:06:54.423Z,3.00
2017-07-16T11:09:23.734Z,1.67
2017-07-16T11:11:53.085Z,1.80
2017-07-16T11:14:22.420Z,1.70
2017-07-16T11:16:52.502Z,1.73
2017-07-16T11:19:21.897Z,2.00
2017-07-16T11:21:51.221Z,1.80
2017-07-16T11:24:20.543Z,1.75
2017-07-16T11:26:50.610Z,1.75
2017-07-16T11:29:19.964Z,1.90
2017-07-16T11:31:49.277Z,1.60
2017-07-16T11:34:18.601Z,1.58
2017-07-16T11:36:47.922Z,1.70
2017-07-16T11:39:22.249Z,1.80
2017-07-16T11:41:51.589Z,2.10
2017-07-16T11:44:21.711Z,1.90
2017-07-16T11:46:51.025Z,1.70
2017-07-16T11:49:20.369Z,1.52
2017-07-16T11:51:49.693Z,1.73
2017-07-16T11:54:19.805Z,1.62
2017-07-16T11:56:49.179Z,1.75
2017-07-16T11:59:18.487Z,1.45
2017-07-16T12:01:47.841Z,1.48
2017-07-16T12:04:17.178Z,1.85
2017-07-16T12:06:46.497Z,1.70
2017-07-16T12:09:15.836Z,1.60
2017-07-16T12:11:45.942Z,1.80
2017-07-16T12:14:15.258Z,1.87
2017-07-16T12:16:45.361Z,1.83
2017-07-16T12:19:15.450Z,1.50
2017-07-16T12:21:44.786Z,1.70
2017-07-16T12:24:14.097Z,1.60
2017-07-16T12:26:44.198Z,1.60
2017-07-16T12:29:14.509Z,1.70
2017-07-16T12:31:43.926Z,2.00
2017-07-16T12:34:14.025Z,1.98
2017-07-16T12:36:43.349Z,1.50
2017-07-16T12:39:12.689Z,1.90
2017-07-16T12:41:42.014Z,1.55
2017-07-16T12:44:11.354Z,1.67
2017-07-16T12:46:40.674Z,1.90
2017-07-16T12:49:10.778Z,1.58
2017-07-16T12:51:42.018Z,1.90
2017-07-16T12:54:11.353Z,1.90
2017-07-16T12:56:45.324Z,1.90
2017-07-16T12:59:14.658Z,1.95
2017-07-16T13:01:43.981Z,2.17
2017-07-16T13:04:13.313Z,1.92
2017-07-16T13:06:42.672Z,2.03
2017-07-16T13:09:12.772Z,2.00
2017-07-16T13:11:42.856Z,2.12
2017-07-16T13:14:12.206Z,1.80
2017-07-16T13:16:41.590Z,1.70
2017-07-16T13:19:10.902Z,2.00
2017-07-16T13:21:41.021Z,1.73
2017-07-16T13:24:10.327Z,1.60
2017-07-16T13:26:40.429Z,1.40
2017-07-16T13:29:09.762Z,1.85
2017-07-16T13:31:39.851Z,2.10
2017-07-16T13:34:09.169Z,1.70
2017-07-16T13:36:39.270Z,1.70
2017-07-16T13:39:08.613Z,1.70
2017-07-16T13:41:37.948Z,1.97
2017-07-16T13:44:07.289Z,2.10
2017-07-16T13:46:36.614Z,1.50
2017-07-16T13:49:05.958Z,1.60
2017-07-16T13:51:35.280Z,1.92
2017-07-16T13:54:04.617Z,1.75
2017-07-16T13:56:33.938Z,1.58
2017-07-16T13:59:03.323Z,2.00
2017-07-16T14:01:32.641Z,2.22
2017-07-16T14:04:01.989Z,1.80
2017-07-16T14:06:31.313Z,1.93
2017-07-16T14:09:01.422Z,2.20
2017-07-16T14:11:31.524Z,1.40
2017-07-16T14:14:00.968Z,2.00
2017-07-16T14:16:30.306Z,2.12
2017-07-16T14:18:59.625Z,1.70
2017-07-16T14:21:28.962Z,1.70
2017-07-16T14:23:59.093Z,1.67
2017-07-16T14:26:29.170Z,1.97
2017-07-16T14:28:58.493Z,1.58
2017-07-16T14:31:27.822Z,1.70
2017-07-16T14:33:57.160Z,1.75
2017-07-16T14:36:26.483Z,1.80
2017-07-16T14:38:55.807Z,1.92
2017-07-16T14:41:25.902Z,1.83
2017-07-16T14:43:55.214Z,1.70
2017-07-16T14:46:29.607Z,1.80
2017-07-16T14:48:59.799Z,1.70
2017-07-16T14:51:29.188Z,1.90
2017-07-16T14:53:59.263Z,1.93
2017-07-16T14:56:28.590Z,2.10
2017-07-16T14:58:58.701Z,1.80
2017-07-16T15:01:28.025Z,1.93
2017-07-16T15:03:58.110Z,1.70
2017-07-16T15:06:27.421Z,1.60
2017-07-16T15:08:56.937Z,1.70
2017-07-16T15:11:30.197Z,1.60
2017-07-16T15:13:59.557Z,1.30
2017-07-16T15:16:28.873Z,1.62
2017-07-16T15:18:58.218Z,1.63
2017-07-16T15:21:27.536Z,2.00
2017-07-16T15:23:57.001Z,1.80
2017-07-16T15:26:26.337Z,1.70
2017-07-16T15:28:55.658Z,1.60
2017-07-16T15:31:24.985Z,1.70
2017-07-16T15:33:54.311Z,1.98
2017-07-16T15:36:23.637Z,1.90
2017-07-16T15:38:52.961Z,1.50
2017-07-16T15:41:22.299Z,1.73
2017-07-16T15:43:51.619Z,2.20
2017-07-16T15:46:21.721Z,1.80
2017-07-16T15:48:51.065Z,1.67
2017-07-16T15:51:20.385Z,2.20
2017-07-16T15:53:49.721Z,1.80
2017-07-16T15:56:19.060Z,1.85
2017-07-16T15:58:48.403Z,1.60
2017-07-16T16:01:17.715Z,2.05
2017-07-16T16:03:47.044Z,1.70
2017-07-16T16:06:16.368Z,1.85
2017-07-16T16:08:45.706Z,2.03
2017-07-16T16:11:15.025Z,1.95
2017-07-16T16:13:44.366Z,2.85
2017-07-16T16:16:14.460Z,1.90
2017-07-16T16:18:43.826Z,2.10
2017-07-16T16:21:13.148Z,2.10
2017-07-16T16:23:42.460Z,2.08
2017-07-16T16:26:11.800Z,2.00
2017-07-16T16:28:41.122Z,2.05
2017-07-16T16:31:10.483Z,1.90
2017-07-16T16:33:40.566Z,1.80
2017-07-16T16:36:09.932Z,2.00
2017-07-16T16:38:39.262Z,2.08
2017-07-16T16:41:08.604Z,1.73
2017-07-16T16:43:37.914Z,1.90
2017-07-16T16:46:08.017Z,1.80
2017-07-16T16:48:37.373Z,1.80
2017-07-16T16:51:06.741Z,2.47
2017-07-16T16:53:36.901Z,2.10
2017-07-16T16:56:07.018Z,2.35
2017-07-16T16:58:37.099Z,2.40
2017-07-16T17:01:06.441Z,2.30
2017-07-16T17:03:36.537Z,2.20
2017-07-16T17:06:05.854Z,2.30
2017-07-16T17:08:35.186Z,2.10
2017-07-16T17:11:04.527Z,2.30
2017-07-16T17:13:33.857Z,1.80
2017-07-16T17:16:03.955Z,2.25
2017-07-16T17:18:33.281Z,1.92
2017-07-16T17:21:02.604Z,1.85
2017-07-16T17:23:32.703Z,2.10
2017-07-16T17:26:02.023Z,2.17
2017-07-16T17:28:32.131Z,2.12
2017-07-16T17:31:02.223Z,2.00
2017-07-16T17:33:31.569Z,2.35
2017-07-16T17:36:00.882Z,2.35
2017-07-16T17:38:30.206Z,2.60
2017-07-16T17:40:59.551Z,2.10
2017-07-16T17:43:28.883Z,1.92
2017-07-16T17:45:58.213Z,2.37
2017-07-16T17:48:27.538Z,2.30
2017-07-16T17:50:56.853Z,2.62
2017-07-16T17:53:26.224Z,2.55
2017-07-16T17:55:55.568Z,2.35
2017-07-16T17:58:25.654Z,2.00
2017-07-16T18:00:54.994Z,2.55
2017-07-16T18:03:25.074Z,2.17
2017-07-16T18:05:54.437Z,1.80
2017-07-16T18:08:23.754Z,1.85
2017-07-16T18:10:53.094Z,2.15
2017-07-16T18:13:22.424Z,2.20
2017-07-16T18:15:52.542Z,2.40
2017-07-16T18:18:21.923Z,2.33
2017-07-16T18:20:51.406Z,2.10
2017-07-16T18:23:20.737Z,2.92
2017-07-16T18:25:50.053Z,2.28
2017-07-16T18:28:19.389Z,2.40
2017-07-16T18:30:48.702Z,2.20
2017-07-16T18:33:18.025Z,2.50
2017-07-16T18:35:47.337Z,2.35
2017-07-16T18:38:16.695Z,2.10
2017-07-16T18:40:46.009Z,2.17
2017-07-16T18:43:15.374Z,2.05
2017-07-16T18:45:44.686Z,2.20
2017-07-16T18:48:13.992Z,2.17
2017-07-16T18:50:43.326Z,2.40
2017-07-16T18:53:12.667Z,2.47
2017-07-16T18:55:42.009Z,2.95
2017-07-16T18:58:11.390Z,1.90
2017-07-16T19:00:41.487Z,2.42
2017-07-16T19:03:10.807Z,2.50
2017-07-16T19:05:40.939Z,2.10
2017-07-16T19:08:10.251Z,2.03
2017-07-16T19:10:39.577Z,2.50
2017-07-16T19:13:08.901Z,2.40
2017-07-16T19:15:38.217Z,2.10
2017-07-16T19:18:07.525Z,2.30
2017-07-16T19:20:36.865Z,2.42
2017-07-16T19:23:06.182Z,2.47
2017-07-16T19:25:35.498Z,2.30
2017-07-16T19:28:04.832Z,2.15
2017-07-16T19:30:34.926Z,2.53
2017-07-16T19:33:04.263Z,2.08
2017-07-16T19:35:34.342Z,2.00
2017-07-16T19:38:03.681Z,2.50
2017-07-16T19:40:33.770Z,1.80
2017-07-16T19:43:03.093Z,1.80
2017-07-16T19:45:32.414Z,2.03
2017-07-16T19:48:01.736Z,2.15
2017-07-16T19:50:31.050Z,2.75
2017-07-16T19:53:00.407Z,2.53
2017-07-16T19:55:30.498Z,2.62
2017-07-16T19:57:59.830Z,2.50
2017-07-16T20:00:29.967Z,2.42
2017-07-16T20:02:59.269Z,2.78
2017-07-16T20:05:28.601Z,2.70
2017-07-16T20:07:57.914Z,2.70
2017-07-16T20:10:27.245Z,2.50
2017-07-16T20:12:56.562Z,2.67
2017-07-16T20:15:25.906Z,2.65
2017-07-16T20:17:55.213Z,2.50
2017-07-16T20:20:24.538Z,2.50
2017-07-16T20:22:53.860Z,2.97
2017-07-16T20:25:23.967Z,2.70
2017-07-16T20:27:53.281Z,2.45
2017-07-16T20:30:22.609Z,2.80
2017-07-16T20:32:51.934Z,2.85
2017-07-16T20:35:21.255Z,3.30
2017-07-16T20:37:50.593Z,3.30
2017-07-16T20:40:19.902Z,4.53
2017-07-16T20:42:49.230Z,3.55
2017-07-16T20:45:18.554Z,3.58
2017-07-16T20:47:47.899Z,3.50
2017-07-16T20:50:17.210Z,3.62
2017-07-16T20:52:46.565Z,3.08
2017-07-16T20:55:15.890Z,2.85
2017-07-16T20:57:45.217Z,3.30
2017-07-16T21:00:14.531Z,2.92
2017-07-16T21:02:43.873Z,3.30
2017-07-16T21:05:13.213Z,3.25
2017-07-16T21:07:42.513Z,3.40
2017-07-16T21:10:11.848Z,3.95
2017-07-16T21:12:41.178Z,4.55
2017-07-16T21:15:10.511Z,4.28
2017-07-16T21:17:39.843Z,4.50
2017-07-16T21:20:09.176Z,3.25
2017-07-16T21:22:38.494Z,3.67
2017-07-16T21:25:07.825Z,3.85
2017-07-16T21:27:37.145Z,4.28
2017-07-16T21:30:06.499Z,4.50
2017-07-16T21:32:35.862Z,4.53
2017-07-16T21:35:05.186Z,3.50
2017-07-16T21:37:34.517Z,4.10
2017-07-16T21:40:03.858Z,3.20
2017-07-16T21:42:33.185Z,2.80
2017-07-16T21:45:02.857Z,3.67
2017-07-16T21:47:32.189Z,3.35
2017-07-16T21:50:01.497Z,3.75
2017-07-16T21:52:30.844Z,3.12
2017-07-16T21:55:00.161Z,3.35
2017-07-16T21:57:29.501Z,3.83
2017-07-16T21:59:58.817Z,3.65
2017-07-16T22:02:28.159Z,3.58
2017-07-16T22:04:57.474Z,3.50
2017-07-16T22:07:26.830Z,3.83
2017-07-16T22:09:56.161Z,3.20
2017-07-16T22:12:26.253Z,3.55
2017-07-16T22:14:56.343Z,3.83
2017-07-16T22:17:25.675Z,3.42
2017-07-16T22:19:55.015Z,4.15
2017-07-16T22:22:24.342Z,4.45
2017-07-16T22:24:53.682Z,3.60
2017-07-16T22:27:23.005Z,4.10
2017-07-16T22:29:52.341Z,3.95
2017-07-16T22:32:21.669Z,3.95
2017-07-16T22:34:51.002Z,3.80
2017-07-16T22:37:21.086Z,3.75
2017-07-16T22:39:50.428Z,3.65
2017-07-16T22:42:19.775Z,3.95
2017-07-16T22:44:49.118Z,3.67
2017-07-16T22:47:19.210Z,3.55
2017-07-16T22:49:48.522Z,3.37
2017-07-16T22:52:17.850Z,3.85
2017-07-16T22:54:47.174Z,4.20
2017-07-16T22:57:16.509Z,3.47
2017-07-16T22:59:45.830Z,3.67
2017-07-16T23:02:15.169Z,3.58
2017-07-16T23:04:44.488Z,4.00
2017-07-16T23:07:13.826Z,3.62
2017-07-16T23:09:43.140Z,3.22
2017-07-16T23:12:12.450Z,3.80
2017-07-16T23:14:41.787Z,4.15
2017-07-16T23:17:11.099Z,4.78
2017-07-16T23:19:40.455Z,3.90
2017-07-16T23:22:09.798Z,3.90
2017-07-16T23:24:39.226Z,4.12
2017-07-16T23:27:08.545Z,4.03
2017-07-16T23:29:37.894Z,3.28
2017-07-16T23:32:07.200Z,3.75
2017-07-16T23:34:36.535Z,3.90
2017-07-16T23:37:05.865Z,4.55
2017-07-16T23:39:35.225Z,4.35
2017-07-16T23:42:04.533Z,3.95
2017-07-16T23:44:33.863Z,4.30
2017-07-16T23:47:03.196Z,4.40
2017-07-16T23:49:32.533Z,3.62
2017-07-16T23:52:02.020Z,4.78
2017-07-16T23:54:31.358Z,3.83
2017-07-16T23:57:00.696Z,4.10
2017-07-16T23:59:30.783Z,4.07
